createdAt,value
2017-09-23T00:01:31.335Z,62.47
2017-09-23T00:04:03.683Z,53.50
2017-09-23T00:06:36.015Z,59.33
2017-09-23T00:09:08.149Z,57.70
2017-09-23T00:11:40.465Z,55.80
2017-09-23T00:14:12.838Z,55.80
2017-09-23T00:16:45.291Z,55.20
2017-09-23T00:19:17.499Z,63.47
2017-09-23T00:21:49.868Z,65.20
2017-09-23T00:24:22.237Z,65.00
2017-09-23T00:26:54.457Z,66.57
2017-09-23T00:29:26.870Z,62.97
2017-09-23T00:31:59.201Z,56.90
2017-09-23T00:34:31.624Z,62.77
2017-09-23T00:37:03.969Z,64.17
2017-09-23T00:39:36.366Z,65.93
2017-09-23T00:42:08.970Z,59.27
2017-09-23T00:44:42.070Z,54.70
2017-09-23T00:47:14.492Z,73.40
2017-09-23T00:49:46.872Z,59.20
2017-09-23T00:52:20.130Z,56.20
2017-09-23T00:54:52.801Z,53.20
2017-09-23T00:57:25.481Z,60.20
2017-09-23T00:59:57.724Z,53.00
2017-09-23T01:02:30.819Z,50.73
2017-09-23T01:05:03.031Z,56.33
2017-09-23T01:07:35.286Z,51.50
2017-09-23T01:10:07.668Z,49.03
2017-09-23T01:12:40.075Z,68.43
2017-09-23T01:15:12.477Z,53.43
2017-09-23T01:17:44.907Z,53.40
2017-09-23T01:20:17.125Z,48.20
2017-09-23T01:22:49.499Z,47.77
2017-09-23T01:25:21.902Z,46.30
2017-09-23T01:27:54.245Z,48.57
2017-09-23T01:30:26.633Z,45.13
2017-09-23T01:32:58.865Z,47.20
2017-09-23T01:35:31.211Z,47.33
2017-09-23T01:38:03.492Z,43.67
2017-09-23T01:40:36.572Z,42.70
2017-09-23T01:43:08.932Z,49.03
2017-09-23T01:45:41.214Z,38.90
2017-09-23T01:48:13.389Z,58.63
2017-09-23T01:50:45.660Z,46.03
2017-09-23T01:53:17.850Z,48.00
2017-09-23T01:55:49.997Z,39.83
2017-09-23T01:58:22.260Z,45.83
2017-09-23T02:00:54.492Z,52.37
2017-09-23T02:03:26.893Z,46.70
2017-09-23T02:05:59.375Z,43.53
2017-09-23T02:08:31.727Z,50.23
2017-09-23T02:11:04.174Z,54.37
2017-09-23T02:13:36.567Z,56.40
2017-09-23T02:16:09.750Z,45.03
2017-09-23T02:18:43.319Z,50.23
2017-09-23T02:21:15.635Z,50.70
2017-09-23T02:23:47.949Z,39.80
2017-09-23T02:26:20.141Z,38.37
2017-09-23T02:28:52.471Z,41.03
2017-09-23T02:31:24.664Z,42.80
2017-09-23T02:33:57.240Z,40.97
2017-09-23T02:36:30.376Z,40.70
2017-09-23T02:39:03.484Z,35.33
2017-09-23T02:41:35.631Z,47.07
2017-09-23T02:44:08.001Z,35.17
2017-09-23T02:46:40.370Z,39.43
2017-09-23T02:49:12.667Z,44.67
2017-09-23T02:51:45.036Z,36.60
2017-09-23T02:54:17.241Z,36.83
2017-09-23T02:56:49.588Z,36.63
2017-09-23T02:59:21.948Z,36.00
2017-09-23T03:01:54.116Z,34.60
2017-09-23T03:04:26.540Z,35.80
2017-09-23T03:06:58.668Z,33.20
2017-09-23T03:09:30.982Z,36.67
2017-09-23T03:12:03.376Z,33.20
2017-09-23T03:14:36.272Z,34.37
2017-09-23T03:17:09.225Z,29.17
2017-09-23T03:19:41.457Z,34.47
2017-09-23T03:22:13.876Z,34.17
2017-09-23T03:24:46.928Z,32.47
2017-09-23T03:27:19.251Z,28.53
2017-09-23T03:29:51.622Z,29.57
2017-09-23T03:32:23.961Z,38.27
2017-09-23T03:34:56.148Z,32.93
2017-09-23T03:37:28.349Z,35.13
2017-09-23T03:40:00.705Z,30.90
2017-09-23T03:42:33.762Z,39.70
2017-09-23T03:45:07.037Z,33.70
2017-09-23T03:47:39.284Z,36.33
2017-09-23T03:50:12.210Z,29.47
2017-09-23T03:52:44.529Z,40.33
2017-09-23T03:55:16.875Z,37.33
2017-09-23T03:57:49.105Z,30.50
2017-09-23T04:00:21.509Z,35.80
2017-09-23T04:02:53.917Z,31.13
2017-09-23T04:05:26.040Z,35.10
2017-09-23T04:07:58.312Z,31.80
2017-09-23T04:10:30.641Z,31.73
2017-09-23T04:13:02.841Z,38.13
2017-09-23T04:15:35.040Z,40.23
2017-09-23T04:18:07.456Z,40.77
2017-09-23T04:20:39.780Z,33.23
2017-09-23T04:23:12.092Z,36.00
2017-09-23T04:25:44.311Z,35.13
2017-09-23T04:28:16.802Z,36.33
2017-09-23T04:30:49.085Z,35.60
2017-09-23T04:33:21.452Z,38.30
2017-09-23T04:35:53.865Z,39.00
2017-09-23T04:38:26.231Z,41.63
2017-09-23T04:40:58.388Z,43.27
2017-09-23T04:43:30.757Z,43.93
2017-09-23T04:46:03.025Z,40.30
2017-09-23T04:48:35.200Z,45.77
2017-09-23T04:51:07.414Z,38.60
2017-09-23T04:53:39.815Z,40.03
2017-09-23T04:56:11.933Z,46.93
2017-09-23T04:58:44.051Z,45.03
2017-09-23T05:01:16.384Z,46.43
2017-09-23T05:03:48.850Z,42.33
2017-09-23T05:06:21.249Z,44.23
2017-09-23T05:08:54.167Z,42.93
2017-09-23T05:11:26.705Z,38.50
2017-09-23T05:13:59.103Z,41.57
2017-09-23T05:16:31.367Z,43.70
2017-09-23T05:19:03.745Z,44.47
2017-09-23T05:21:36.155Z,41.50
2017-09-23T05:24:08.449Z,40.33
2017-09-23T05:26:40.744Z,48.30
2017-09-23T05:29:13.039Z,46.13
2017-09-23T05:31:45.463Z,50.80
2017-09-23T05:34:17.852Z,47.37
2017-09-23T05:36:50.102Z,44.90
2017-09-23T05:39:22.467Z,48.27
2017-09-23T05:41:55.593Z,43.97
2017-09-23T05:44:28.181Z,41.03
2017-09-23T05:47:01.473Z,40.30
2017-09-23T05:49:33.880Z,39.90
2017-09-23T05:52:06.268Z,40.17
2017-09-23T05:54:38.568Z,48.60
2017-09-23T05:57:10.780Z,38.00
2017-09-23T05:59:42.945Z,41.27
2017-09-23T06:02:15.152Z,45.30
2017-09-23T06:04:48.352Z,49.47
2017-09-23T06:07:20.707Z,46.37
2017-09-23T06:09:53.120Z,42.00
2017-09-23T06:12:26.180Z,40.40
2017-09-23T06:14:58.421Z,37.40
2017-09-23T06:17:30.675Z,41.13
2017-09-23T06:20:03.112Z,39.03
2017-09-23T06:22:35.550Z,40.10
2017-09-23T06:25:08.642Z,47.77
2017-09-23T06:27:41.080Z,39.57
2017-09-23T06:30:13.333Z,39.40
2017-09-23T06:32:45.864Z,44.97
2017-09-23T06:35:18.224Z,39.60
2017-09-23T06:37:50.625Z,40.97
2017-09-23T06:40:22.872Z,41.23
2017-09-23T06:42:55.068Z,41.47
2017-09-23T06:45:28.113Z,42.63
2017-09-23T06:48:00.272Z,49.47
2017-09-23T06:50:32.729Z,41.30
2017-09-23T06:53:05.764Z,42.80
2017-09-23T06:55:37.972Z,47.30
2017-09-23T06:58:10.230Z,44.20
2017-09-23T07:00:42.619Z,37.20
2017-09-23T07:03:14.944Z,45.83
2017-09-23T07:05:47.224Z,43.87
2017-09-23T07:08:19.475Z,47.70
2017-09-23T07:10:51.805Z,44.10
2017-09-23T07:13:24.177Z,34.60
2017-09-23T07:15:56.323Z,35.00
2017-09-23T07:18:28.524Z,33.43
2017-09-23T07:21:00.864Z,29.60
2017-09-23T07:23:33.300Z,48.30
2017-09-23T07:26:05.600Z,36.03
2017-09-23T07:28:37.848Z,26.23
2017-09-23T07:31:10.025Z,33.67
2017-09-23T07:33:42.475Z,22.67
2017-09-23T07:36:14.892Z,18.90
2017-09-23T07:38:47.260Z,23.27
2017-09-23T07:41:19.532Z,18.00
2017-09-23T07:43:51.904Z,17.63
2017-09-23T07:46:24.141Z,16.30
2017-09-23T07:48:57.279Z,16.70
2017-09-23T07:51:29.616Z,18.23
2017-09-23T07:54:02.798Z,18.23
2017-09-23T07:56:35.063Z,19.30
2017-09-23T07:59:08.072Z,21.30
2017-09-23T08:01:40.502Z,19.53
2017-09-23T08:04:12.853Z,16.73
2017-09-23T08:06:45.216Z,18.93
2017-09-23T08:09:17.583Z,22.90
2017-09-23T08:11:50.241Z,18.47
2017-09-23T08:14:22.715Z,18.50
2017-09-23T08:16:54.972Z,19.50
2017-09-23T08:19:27.430Z,23.10
2017-09-23T08:21:59.730Z,18.60
2017-09-23T08:24:32.106Z,20.47
2017-09-23T08:27:04.492Z,23.20
2017-09-23T08:29:36.817Z,21.40
2017-09-23T08:32:09.811Z,23.70
2017-09-23T08:34:42.088Z,17.03
2017-09-23T08:37:14.404Z,18.60
2017-09-23T08:39:47.444Z,22.47
2017-09-23T08:42:20.420Z,17.43
2017-09-23T08:44:52.624Z,18.43
2017-09-23T08:47:25.025Z,17.83
2017-09-23T08:49:57.213Z,22.70
2017-09-23T08:52:29.562Z,20.20
2017-09-23T08:55:02.154Z,15.60
2017-09-23T08:57:34.303Z,23.20
2017-09-23T09:00:06.549Z,18.30
2017-09-23T09:02:38.760Z,13.77
2017-09-23T09:05:11.190Z,12.70
2017-09-23T09:07:44.441Z,15.50
2017-09-23T09:10:16.720Z,18.30
2017-09-23T09:12:49.107Z,19.40
2017-09-23T09:15:21.383Z,18.27
2017-09-23T09:17:53.716Z,20.30
2017-09-23T09:20:26.064Z,21.33
2017-09-23T09:22:58.436Z,21.03
2017-09-23T09:25:31.587Z,16.53
2017-09-23T09:28:03.795Z,16.40
2017-09-23T09:30:36.234Z,19.13
2017-09-23T09:33:08.396Z,18.30
2017-09-23T09:35:40.660Z,32.17
2017-09-23T09:38:13.111Z,15.17
2017-09-23T09:40:45.625Z,20.13
2017-09-23T09:43:17.972Z,21.90
2017-09-23T09:45:50.300Z,13.53
2017-09-23T09:48:22.694Z,15.40
2017-09-23T09:50:55.181Z,15.73
2017-09-23T09:53:27.653Z,19.13
2017-09-23T09:56:00.690Z,20.30
2017-09-23T09:58:33.224Z,16.83
2017-09-23T10:01:05.761Z,14.97
2017-09-23T10:03:38.120Z,29.80
2017-09-23T10:06:11.060Z,20.20
2017-09-23T10:08:44.344Z,31.43
2017-09-23T10:11:16.754Z,17.17
2017-09-23T10:13:50.009Z,13.63
2017-09-23T10:16:22.363Z,12.20
2017-09-23T10:18:54.749Z,14.63
2017-09-23T10:21:27.096Z,15.33
2017-09-23T10:23:59.248Z,16.37
2017-09-23T10:26:31.668Z,16.67
2017-09-23T10:29:03.936Z,20.93
2017-09-23T10:31:36.113Z,20.43
2017-09-23T10:34:08.584Z,16.20
2017-09-23T10:36:40.872Z,15.30
2017-09-23T10:39:13.156Z,15.10
2017-09-23T10:41:45.584Z,18.17
2017-09-23T10:44:17.968Z,16.40
2017-09-23T10:46:50.709Z,13.80
2017-09-23T10:49:23.303Z,13.40
2017-09-23T10:51:55.713Z,12.10
2017-09-23T10:54:28.315Z,13.33
2017-09-23T10:59:39.493Z,20.70
2017-09-23T11:02:11.897Z,17.00
2017-09-23T11:04:45.016Z,22.23
2017-09-23T11:07:17.349Z,19.90
2017-09-23T11:09:49.613Z,31.87
2017-09-23T11:12:22.788Z,30.90
2017-09-23T11:14:55.812Z,21.13
2017-09-23T11:17:28.080Z,16.80
2017-09-23T11:20:00.436Z,18.67
2017-09-23T11:22:32.722Z,20.13
2017-09-23T11:25:05.017Z,18.57
2017-09-23T11:27:38.362Z,18.40
2017-09-23T11:30:10.739Z,25.00
2017-09-23T11:32:43.183Z,26.13
2017-09-23T11:35:15.627Z,18.00
2017-09-23T11:37:48.758Z,24.23
2017-09-23T11:40:21.109Z,18.93
2017-09-23T11:42:53.397Z,17.43
2017-09-23T11:45:25.764Z,14.57
2017-09-23T11:47:58.077Z,17.03
2017-09-23T11:50:30.377Z,16.20
2017-09-23T11:53:02.641Z,14.80
2017-09-23T11:55:35.070Z,24.77
2017-09-23T11:58:07.209Z,13.90
2017-09-23T12:00:40.412Z,16.57
2017-09-23T12:03:13.414Z,62.07
2017-09-23T12:05:45.811Z,16.73
2017-09-23T12:08:18.037Z,18.33
2017-09-23T12:10:50.454Z,13.67
2017-09-23T12:13:22.819Z,17.43
2017-09-23T12:15:55.100Z,17.20
2017-09-23T12:18:27.437Z,13.60
2017-09-23T12:20:59.821Z,15.00
2017-09-23T12:23:32.487Z,17.13
2017-09-23T12:26:05.140Z,12.77
2017-09-23T12:28:37.609Z,14.50
2017-09-23T12:31:09.985Z,11.63
2017-09-23T12:33:42.326Z,12.27
2017-09-23T12:36:14.668Z,13.07
2017-09-23T12:38:46.840Z,12.90
2017-09-23T12:41:19.113Z,14.60
2017-09-23T12:43:51.544Z,12.50
2017-09-23T12:46:23.964Z,18.47
2017-09-23T12:48:56.376Z,11.27
2017-09-23T12:51:28.866Z,12.50
2017-09-23T12:54:01.270Z,11.10
2017-09-23T12:56:33.456Z,9.50
2017-09-23T12:59:05.939Z,9.20
2017-09-23T13:01:38.316Z,8.63
2017-09-23T13:04:10.843Z,10.37
2017-09-23T13:06:43.020Z,11.37
2017-09-23T13:09:15.227Z,10.37
2017-09-23T13:11:48.369Z,11.67
2017-09-23T13:14:20.641Z,15.90
2017-09-23T13:16:52.913Z,16.37
2017-09-23T13:19:25.212Z,10.40
2017-09-23T13:21:58.220Z,9.10
2017-09-23T13:24:30.453Z,11.27
2017-09-23T13:27:02.804Z,11.63
2017-09-23T13:29:35.204Z,16.93
2017-09-23T13:32:07.444Z,11.60
2017-09-23T13:34:39.919Z,28.13
2017-09-23T13:37:12.960Z,11.93
2017-09-23T13:39:45.275Z,11.13
2017-09-23T13:42:17.662Z,9.80
2017-09-23T13:44:50.013Z,13.03
2017-09-23T13:47:22.368Z,10.00
2017-09-23T13:49:54.566Z,17.07
2017-09-23T13:52:26.657Z,38.43
2017-09-23T13:54:58.777Z,18.20
2017-09-23T13:57:31.147Z,19.40
2017-09-23T14:00:03.680Z,21.63
2017-09-23T14:02:36.390Z,20.10
2017-09-23T14:05:08.828Z,19.77
2017-09-23T14:07:41.088Z,17.70
2017-09-23T14:10:13.468Z,12.93
2017-09-23T14:12:45.801Z,16.47
2017-09-23T14:15:18.365Z,23.30
2017-09-23T14:17:50.660Z,28.73
2017-09-23T14:20:23.192Z,19.33
2017-09-23T14:22:55.384Z,56.27
2017-09-23T14:25:27.919Z,40.07
2017-09-23T14:28:00.260Z,29.57
2017-09-23T14:30:32.682Z,50.77
2017-09-23T14:33:05.124Z,34.90
2017-09-23T14:35:37.446Z,30.90
2017-09-23T14:38:09.744Z,19.00
2017-09-23T14:40:42.103Z,20.97
2017-09-23T14:43:15.224Z,30.20
2017-09-23T14:45:47.685Z,35.23
2017-09-23T14:48:20.312Z,15.27
2017-09-23T14:50:52.756Z,19.43
2017-09-23T14:53:25.063Z,20.07
2017-09-23T14:55:57.188Z,24.50
2017-09-23T14:58:29.416Z,18.43
2017-09-23T15:01:01.928Z,16.13
2017-09-23T15:03:34.322Z,20.80
2017-09-23T15:06:07.381Z,11.60
2017-09-23T15:08:39.616Z,15.90
2017-09-23T15:11:11.868Z,16.00
2017-09-23T15:13:44.971Z,12.50
2017-09-23T15:16:17.999Z,13.40
2017-09-23T15:18:50.188Z,13.80
2017-09-23T15:21:22.380Z,13.03
2017-09-23T15:23:54.643Z,13.63
2017-09-23T15:26:27.045Z,14.70
2017-09-23T15:28:59.354Z,12.43
2017-09-23T15:31:31.799Z,14.23
2017-09-23T15:34:04.757Z,17.20
2017-09-23T15:36:37.012Z,15.17
2017-09-23T15:39:09.359Z,17.60
2017-09-23T15:41:41.608Z,15.70
2017-09-23T15:44:13.715Z,21.60
2017-09-23T15:46:46.713Z,30.67
2017-09-23T15:49:19.108Z,28.90
2017-09-23T15:51:51.561Z,22.17
2017-09-23T15:54:23.926Z,18.70
2017-09-23T15:56:56.456Z,24.90
2017-09-23T15:59:29.817Z,41.60
2017-09-23T16:02:02.068Z,55.37
2017-09-23T16:04:34.444Z,32.13
2017-09-23T16:07:06.872Z,69.97
2017-09-23T16:09:39.786Z,138.00
2017-09-23T16:12:12.896Z,98.23
2017-09-23T16:14:45.999Z,57.33
2017-09-23T16:17:18.232Z,74.17
2017-09-23T16:19:50.714Z,130.33
2017-09-23T16:22:23.048Z,102.93
2017-09-23T16:24:55.409Z,78.10
2017-09-23T16:27:28.609Z,55.00
2017-09-23T16:30:00.765Z,52.00
2017-09-23T16:32:33.894Z,70.00
2017-09-23T16:35:06.188Z,48.57
2017-09-23T16:37:38.596Z,57.80
2017-09-23T16:40:10.920Z,35.30
2017-09-23T16:42:43.465Z,42.57
2017-09-23T16:45:15.785Z,69.07
2017-09-23T16:47:48.125Z,47.63
2017-09-23T16:50:20.516Z,62.53
2017-09-23T16:52:53.898Z,116.83
2017-09-23T16:55:26.310Z,87.80
2017-09-23T16:57:59.601Z,54.80
2017-09-23T17:00:32.032Z,59.03
2017-09-23T17:03:05.430Z,43.47
2017-09-23T17:05:37.848Z,45.93
2017-09-23T17:08:10.170Z,44.37
2017-09-23T17:10:42.634Z,48.57
2017-09-23T17:13:15.041Z,50.07
2017-09-23T17:15:47.498Z,43.00
2017-09-23T17:18:20.777Z,57.53
2017-09-23T17:20:53.101Z,50.83
2017-09-23T17:23:25.529Z,54.07
2017-09-23T17:26:00.977Z,53.27
2017-09-23T17:28:34.045Z,58.67
2017-09-23T17:31:06.637Z,127.90
2017-09-23T17:33:39.198Z,90.80
2017-09-23T17:36:13.328Z,54.67
2017-09-23T17:38:45.924Z,221.57
2017-09-23T17:41:19.783Z,209.90
2017-09-23T17:43:52.096Z,79.47
2017-09-23T17:46:24.421Z,303.23
2017-09-23T17:48:56.769Z,273.87
2017-09-23T17:51:29.182Z,226.40
2017-09-23T17:54:01.532Z,177.73
2017-09-23T17:56:33.837Z,167.37
2017-09-23T17:59:06.169Z,457.90
2017-09-23T18:01:38.655Z,301.60
2017-09-23T18:04:11.864Z,285.80
2017-09-23T18:06:44.213Z,191.53
2017-09-23T18:09:17.180Z,114.87
2017-09-23T18:11:49.658Z,168.13
2017-09-23T18:14:22.121Z,174.30
2017-09-23T18:16:54.358Z,172.67
2017-09-23T18:19:26.585Z,115.13
2017-09-23T18:21:58.925Z,80.53
2017-09-23T18:24:31.293Z,66.23
2017-09-23T18:27:04.433Z,57.93
2017-09-23T18:29:36.625Z,58.40
2017-09-23T18:32:09.784Z,49.10
2017-09-23T18:34:42.104Z,46.93
2017-09-23T18:37:14.360Z,54.80
2017-09-23T18:39:46.812Z,53.43
2017-09-23T18:42:20.459Z,53.60
2017-09-23T18:44:52.800Z,44.77
2017-09-23T18:47:25.770Z,47.07
2017-09-23T18:49:57.960Z,52.23
2017-09-23T18:52:30.104Z,53.53
2017-09-23T18:55:02.546Z,50.30
2017-09-23T18:57:34.912Z,59.47
2017-09-23T19:00:07.416Z,81.80
2017-09-23T19:02:39.759Z,71.63
2017-09-23T19:05:12.164Z,98.40
2017-09-23T19:07:44.545Z,81.83
2017-09-23T19:10:16.747Z,90.33
2017-09-23T19:12:49.706Z,76.70
2017-09-23T19:15:22.120Z,71.43
2017-09-23T19:17:54.543Z,97.17
2017-09-23T19:20:26.812Z,104.40
2017-09-23T19:22:59.062Z,102.00
2017-09-23T19:25:31.468Z,111.73
2017-09-23T19:28:03.722Z,115.03
2017-09-23T19:30:36.136Z,158.87
2017-09-23T19:33:08.496Z,80.77
2017-09-23T19:35:40.836Z,211.77
2017-09-23T19:38:13.072Z,175.30
2017-09-23T19:40:45.413Z,159.97
2017-09-23T19:43:17.807Z,146.43
2017-09-23T19:45:50.123Z,84.13
2017-09-23T19:48:22.639Z,165.57
2017-09-23T19:50:55.839Z,97.30
2017-09-23T19:53:28.090Z,101.07
2017-09-23T19:56:00.578Z,81.80
2017-09-23T19:58:33.011Z,86.70
2017-09-23T20:01:05.345Z,61.70
2017-09-23T20:03:37.629Z,65.90
2017-09-23T20:06:09.959Z,57.70
2017-09-23T20:08:42.945Z,55.57
2017-09-23T20:11:15.184Z,53.27
2017-09-23T20:13:47.501Z,53.20
2017-09-23T20:16:20.010Z,51.60
2017-09-23T20:18:52.337Z,53.50
2017-09-23T20:21:24.760Z,49.63
2017-09-23T20:23:57.157Z,45.63
2017-09-23T20:26:29.744Z,44.60
2017-09-23T20:29:02.114Z,43.60
2017-09-23T20:31:35.133Z,40.60
2017-09-23T20:34:07.578Z,47.37
2017-09-23T20:36:40.023Z,70.90
2017-09-23T20:39:12.289Z,85.40
2017-09-23T20:41:44.553Z,78.87
2017-09-23T20:44:17.362Z,95.53
2017-09-23T20:46:49.585Z,80.57
2017-09-23T20:49:22.069Z,93.13
2017-09-23T20:51:54.357Z,51.37
2017-09-23T20:54:26.942Z,51.60
2017-09-23T20:56:59.524Z,47.80
2017-09-23T20:59:31.820Z,47.83
2017-09-23T21:02:04.719Z,67.67
2017-09-23T21:04:36.948Z,39.57
2017-09-23T21:10:46.263Z,79.60
2017-09-23T21:13:19.908Z,116.83
2017-09-23T21:15:52.169Z,128.37
2017-09-23T21:18:24.517Z,145.17
2017-09-23T21:20:56.889Z,55.73
2017-09-23T21:23:29.298Z,90.23
2017-09-23T21:26:01.749Z,105.73
2017-09-23T21:28:34.168Z,115.17
2017-09-23T21:31:06.834Z,145.53
2017-09-23T21:33:39.505Z,221.20
2017-09-23T21:36:11.915Z,106.77
2017-09-23T21:38:45.053Z,152.80
2017-09-23T21:41:18.164Z,120.17
2017-09-23T21:43:50.606Z,119.87
2017-09-23T21:46:22.875Z,77.20
2017-09-23T21:48:55.126Z,68.70
2017-09-23T21:51:27.493Z,65.80
2017-09-23T21:54:00.483Z,63.63
2017-09-23T21:56:32.898Z,52.00
2017-09-23T21:59:05.553Z,50.07
2017-09-23T22:01:38.061Z,68.03
2017-09-23T22:04:10.453Z,89.93
2017-09-23T22:06:43.732Z,38.03
2017-09-23T22:09:16.528Z,56.70
2017-09-23T22:11:49.927Z,45.27
2017-09-23T22:14:22.470Z,57.10
2017-09-23T22:16:55.236Z,42.43
2017-09-23T22:19:27.627Z,46.17
2017-09-23T22:21:59.978Z,45.63
2017-09-23T22:24:32.397Z,48.23
2017-09-23T22:27:04.691Z,47.50
2017-09-23T22:29:37.354Z,54.63
2017-09-23T22:32:09.706Z,52.23
2017-09-23T22:34:42.112Z,50.80
2017-09-23T22:37:14.412Z,75.00
2017-09-23T22:39:46.887Z,52.80
2017-09-23T22:42:19.358Z,69.80
2017-09-23T22:44:51.881Z,59.03
2017-09-23T22:47:24.329Z,60.23
2017-09-23T22:49:56.744Z,61.03
2017-09-23T22:52:29.160Z,97.40
2017-09-23T22:55:01.502Z,61.00
2017-09-23T22:57:33.760Z,46.93
2017-09-23T23:00:06.015Z,36.17
2017-09-23T23:02:38.281Z,43.27
2017-09-23T23:05:10.742Z,35.30
2017-09-23T23:07:43.027Z,45.10
2017-09-23T23:10:15.514Z,36.70
2017-09-23T23:12:48.663Z,31.90
2017-09-23T23:15:21.070Z,27.43
2017-09-23T23:17:53.290Z,28.23
2017-09-23T23:20:25.664Z,25.63
2017-09-23T23:22:58.040Z,32.30
2017-09-23T23:25:30.681Z,29.00
2017-09-23T23:28:03.126Z,33.17
2017-09-23T23:30:35.408Z,35.87
2017-09-23T23:33:07.561Z,33.73
2017-09-23T23:35:39.797Z,35.70
2017-09-23T23:38:12.174Z,54.70
2017-09-23T23:40:44.859Z,50.63
2017-09-23T23:43:17.208Z,111.97
2017-09-23T23:45:49.648Z,128.40
2017-09-23T23:48:22.091Z,387.80
2017-09-23T23:50:54.779Z,134.87
2017-09-23T23:53:27.188Z,93.77
2017-09-23T23:55:59.989Z,112.80
2017-09-23T23:58:32.460Z,107.80
